Time;durP1;ratioP1;P1;durP2;ratioP2;P2;SDS_P1;SDS_P2;PMS_P1;PMS_P2;Temp;Humidity;BMP_temperature;BMP_pressure;BME280_temperature;BME280_humidity;BME280_pressure;Samples;Min_cycle;Max_cycle;Signal;HPM_P1;HPM_P2
2023/04/12 00:01:25;;;;;;;0.88;0.73;;;16.50;49.60;;;;;;5087620;28;45478;-69
2023/04/12 00:03:53;;;;;;;1.50;1.00;;;16.50;49.70;;;;;;5087310;28;45638;-69
2023/04/12 00:06:24;;;;;;;3.42;0.88;;;16.50;49.70;;;;;;5087245;28;45284;-69
2023/04/12 00:08:51;;;;;;;1.38;0.93;;;16.50;49.70;;;;;;5086849;27;45386;-69
2023/04/12 00:11:17;;;;;;;2.70;1.08;;;16.50;50.60;;;;;;5087507;28;45351;-69
2023/04/12 00:13:46;;;;;;;1.52;1.08;;;16.40;49.70;;;;;;5087486;28;46599;-69
2023/04/12 00:16:14;;;;;;;3.45;1.13;;;16.40;50.00;;;;;;5087123;28;45272;-69
2023/04/12 00:18:41;;;;;;;1.58;0.88;;;16.40;50.00;;;;;;5087259;28;45312;-69
2023/04/12 00:21:09;;;;;;;1.58;0.80;;;16.40;49.70;;;;;;5087326;28;45317;-69
2023/04/12 00:23:36;;;;;;;1.00;0.90;;;16.40;50.10;;;;;;5086986;28;46520;-69
2023/04/12 00:26:03;;;;;;;2.05;0.70;;;16.40;50.20;;;;;;5086653;28;45324;-69
2023/04/12 00:28:30;;;;;;;2.15;1.00;;;16.40;49.70;;;;;;5087161;28;45342;-69
2023/04/12 00:30:58;;;;;;;1.35;0.90;;;16.30;49.90;;;;;;5087161;28;45376;-69
2023/04/12 00:33:25;;;;;;;0.88;0.80;;;16.30;50.10;;;;;;5086715;28;45473;-69
2023/04/12 00:35:52;;;;;;;1.27;1.00;;;16.40;50.40;;;;;;5086838;28;45258;-69
2023/04/12 00:38:19;;;;;;;1.23;0.80;;;16.30;50.50;;;;;;5086811;28;45246;-70
2023/04/12 00:40:45;;;;;;;0.80;0.80;;;16.30;50.20;;;;;;5087115;28;45463;-70
2023/04/12 00:43:14;;;;;;;1.73;0.85;;;16.30;50.30;;;;;;5086790;28;46552;-69
2023/04/12 00:45:41;;;;;;;0.80;0.80;;;16.30;50.60;;;;;;5086704;28;45239;-70
2023/04/12 00:48:09;;;;;;;0.90;0.80;;;16.30;50.20;;;;;;5086621;28;45369;-69
2023/04/12 00:50:36;;;;;;;0.85;0.68;;;16.30;50.60;;;;;;5086988;28;45419;-70
2023/04/12 00:53:03;;;;;;;1.70;0.90;;;16.30;50.50;;;;;;5086570;28;46656;-70
2023/04/12 00:55:30;;;;;;;1.75;0.90;;;16.30;50.40;;;;;;5086432;28;45269;-70
2023/04/12 00:57:58;;;;;;;1.00;0.70;;;16.30;50.40;;;;;;5086578;28;45315;-70
2023/04/12 01:00:25;;;;;;;2.42;0.80;;;16.30;51.10;;;;;;5086789;28;45182;-70
2023/04/12 01:02:52;;;;;;;1.35;1.00;;;16.30;50.60;;;;;;5086474;28;46852;-70
2023/04/12 01:05:22;;;;;;;1.63;0.88;;;16.20;50.50;;;;;;5086318;28;45379;-70
2023/04/12 01:07:54;;;;;;;1.65;0.90;;;16.20;50.50;;;;;;5086001;28;45292;-70
2023/04/12 01:10:27;;;;;;;0.85;0.75;;;16.20;50.30;;;;;;5086681;28;45319;-70
2023/04/12 01:12:58;;;;;;;1.17;0.60;;;16.20;50.50;;;;;;5086252;28;45325;-70
2023/04/12 01:15:25;;;;;;;3.97;0.80;;;16.20;50.50;;;;;;5086287;28;45392;-70
2023/04/12 01:17:56;;;;;;;0.88;0.75;;;16.20;50.60;;;;;;5086507;28;45365;-70
2023/04/12 01:20:26;;;;;;;1.05;0.90;;;16.20;50.40;;;;;;5085294;28;45304;-70
2023/04/12 01:23:13;;;;;;;1.52;0.70;;;16.20;51.00;;;;;;5086153;28;45480;-70
2023/04/12 01:25:45;;;;;;;1.65;0.73;;;16.10;50.40;;;;;;5085892;28;45323;-70
2023/04/12 01:28:15;;;;;;;1.48;0.90;;;16.10;50.50;;;;;;5086178;28;45356;-70
2023/04/12 01:30:42;;;;;;;1.02;0.88;;;16.10;50.50;;;;;;5086490;28;45287;-70
2023/04/12 01:33:11;;;;;;;2.42;0.80;;;16.10;50.50;;;;;;5086026;28;45343;-69
2023/04/12 01:35:38;;;;;;;0.95;0.80;;;16.10;50.80;;;;;;5085965;28;45366;-70
2023/04/12 01:38:05;;;;;;;1.27;0.88;;;16.10;50.60;;;;;;5086025;28;45317;-70
2023/04/12 01:40:32;;;;;;;1.38;0.88;;;16.10;50.60;;;;;;5086098;28;45307;-70
2023/04/12 01:43:05;;;;;;;3.50;0.70;;;16.10;50.70;;;;;;5085695;28;46423;-70
2023/04/12 01:45:34;;;;;;;0.90;0.70;;;16.10;50.60;;;;;;5083376;28;45329;-70
2023/04/12 01:48:01;;;;;;;1.75;0.75;;;16.10;50.80;;;;;;5085757;28;45385;-69
2023/04/12 01:50:31;;;;;;;1.15;0.70;;;16.00;50.40;;;;;;5086217;28;45315;-69
2023/04/12 01:53:10;;;;;;;1.83;0.90;;;16.00;51.40;;;;;;5085714;28;47333;-70
2023/04/12 01:55:38;;;;;;;1.23;0.73;;;16.00;50.60;;;;;;5085916;28;45696;-70
2023/04/12 01:58:05;;;;;;;1.75;0.70;;;16.00;51.30;;;;;;5085802;28;45321;-70
2023/04/12 02:00:33;;;;;;;1.85;0.90;;;16.00;50.70;;;;;;5085917;28;45261;-70
2023/04/12 02:03:00;;;;;;;1.75;0.70;;;16.00;50.60;;;;;;5085585;28;45246;-69
2023/04/12 02:05:26;;;;;;;0.80;0.60;;;16.00;50.60;;;;;;5085528;28;45402;-70
2023/04/12 02:07:53;;;;;;;2.00;0.80;;;16.00;50.70;;;;;;5085697;28;45371;-70
2023/04/12 02:10:28;;;;;;;1.58;0.90;;;16.00;50.40;;;;;;5085877;28;45304;-70
2023/04/12 02:12:55;;;;;;;1.48;0.68;;;15.90;50.50;;;;;;5085390;28;45405;-69
2023/04/12 02:15:22;;;;;;;0.77;0.70;;;15.90;50.60;;;;;;5085470;28;45307;-70
2023/04/12 02:17:52;;;;;;;1.25;0.50;;;15.90;50.80;;;;;;5085534;28;45131;-70
2023/04/12 02:20:19;;;;;;;1.50;0.70;;;15.90;50.60;;;;;;5085872;28;45232;-69
2023/04/12 02:22:46;;;;;;;1.13;0.80;;;15.90;50.50;;;;;;5085275;28;45327;-70
2023/04/12 02:25:14;;;;;;;0.80;0.70;;;15.90;50.70;;;;;;5085495;28;45316;-69
2023/04/12 02:27:41;;;;;;;1.15;0.77;;;15.90;50.60;;;;;;5084992;28;45371;-69
2023/04/12 02:30:08;;;;;;;0.50;0.50;;;15.90;50.80;;;;;;5086025;27;45348;-69
2023/04/12 02:32:42;;;;;;;1.15;0.52;;;15.90;50.60;;;;;;5088904;28;46397;-70
2023/04/12 02:35:11;;;;;;;0.50;0.50;;;15.80;50.70;;;;;;5088825;28;46386;-69
2023/04/12 02:37:38;;;;;;;0.65;0.50;;;15.80;50.70;;;;;;5089164;28;45258;-69
2023/04/12 02:40:09;;;;;;;1.50;0.65;;;15.80;50.70;;;;;;5089239;28;45439;-70
2023/04/12 02:42:35;;;;;;;0.80;0.80;;;15.80;50.70;;;;;;5089018;28;46449;-70
2023/04/12 02:45:02;;;;;;;1.13;0.55;;;15.80;50.80;;;;;;5088911;28;45286;-69
2023/04/12 02:47:29;;;;;;;0.50;0.50;;;15.80;50.80;;;;;;5088710;28;45318;-70
2023/04/12 02:49:56;;;;;;;0.68;0.65;;;15.80;50.80;;;;;;5089303;28;45443;-69
2023/04/12 02:52:25;;;;;;;1.05;0.70;;;15.80;51.40;;;;;;5088682;28;46611;-69
2023/04/12 02:54:52;;;;;;;0.85;0.70;;;15.80;51.00;;;;;;5088762;28;45296;-69
2023/04/12 02:57:19;;;;;;;0.52;0.52;;;15.80;50.90;;;;;;5088445;28;45328;-68
2023/04/12 02:59:47;;;;;;;0.77;0.77;;;15.80;50.80;;;;;;5088803;28;45229;-71
2023/04/12 03:02:14;;;;;;;0.75;0.75;;;15.80;50.80;;;;;;5088373;28;45470;-71
2023/04/12 03:04:41;;;;;;;0.60;0.60;;;15.80;50.90;;;;;;5088585;28;45335;-69
2023/04/12 03:07:08;;;;;;;0.60;0.60;;;15.70;51.00;;;;;;5088479;28;45351;-69
2023/04/12 03:09:37;;;;;;;0.63;0.63;;;15.80;50.90;;;;;;5088969;28;45421;-69
2023/04/12 03:12:04;;;;;;;0.60;0.60;;;15.70;50.90;;;;;;5088287;28;48271;-71
2023/04/12 03:14:31;;;;;;;0.50;0.50;;;15.70;50.80;;;;;;5088439;28;45267;-71
2023/04/12 03:16:58;;;;;;;1.27;0.70;;;15.70;50.90;;;;;;5088291;28;45261;-69
2023/04/12 03:19:25;;;;;;;1.02;0.90;;;15.70;50.90;;;;;;5088745;28;45315;-70
2023/04/12 03:21:52;;;;;;;1.10;0.73;;;15.70;50.90;;;;;;5088325;28;45414;-71
2023/04/12 03:24:18;;;;;;;0.82;0.60;;;15.70;51.20;;;;;;5088129;28;45423;-71
2023/04/12 03:26:47;;;;;;;1.67;0.60;;;15.70;50.90;;;;;;5088036;28;45378;-69
2023/04/12 03:29:13;;;;;;;1.10;0.52;;;15.70;50.80;;;;;;5088528;28;45317;-71
2023/04/12 03:31:40;;;;;;;0.50;0.50;;;15.70;51.10;;;;;;5088308;28;46391;-70
2023/04/12 03:34:07;;;;;;;1.35;0.70;;;15.70;50.90;;;;;;5088042;28;45651;-70
2023/04/12 03:36:34;;;;;;;0.52;0.52;;;15.70;50.90;;;;;;5088105;28;45391;-69
2023/04/12 03:39:01;;;;;;;0.70;0.68;;;15.60;50.80;;;;;;5088271;28;45209;-70
2023/04/12 03:41:28;;;;;;;1.40;0.60;;;15.60;50.90;;;;;;5087625;28;45337;-70
2023/04/12 03:43:56;;;;;;;1.42;0.70;;;15.60;51.00;;;;;;5087154;28;45277;-69
2023/04/12 03:46:23;;;;;;;0.70;0.50;;;15.60;51.10;;;;;;5088087;28;45416;-70
2023/04/12 03:48:50;;;;;;;0.85;0.70;;;15.60;50.80;;;;;;5087883;28;45368;-70
2023/04/12 03:51:21;;;;;;;0.50;0.50;;;15.60;51.00;;;;;;5087817;28;47858;-69
2023/04/12 03:53:47;;;;;;;0.50;0.50;;;15.60;50.90;;;;;;5087851;28;45383;-71
2023/04/12 03:56:14;;;;;;;0.50;0.50;;;15.60;50.90;;;;;;5087683;28;45343;-69
2023/04/12 03:58:41;;;;;;;0.55;0.55;;;15.60;50.90;;;;;;5087842;28;45496;-69
2023/04/12 04:01:12;;;;;;;0.50;0.50;;;15.60;51.00;;;;;;5087484;28;47577;-71
2023/04/12 04:03:39;;;;;;;0.63;0.63;;;15.60;51.00;;;;;;5087544;28;45344;-69
2023/04/12 04:06:07;;;;;;;0.45;0.45;;;15.60;51.10;;;;;;5087681;28;45391;-71
2023/04/12 04:08:34;;;;;;;0.60;0.50;;;15.60;51.00;;;;;;5088012;28;45279;-71
2023/04/12 04:11:01;;;;;;;0.45;0.45;;;15.50;50.80;;;;;;5087340;28;46654;-71
2023/04/12 04:13:27;;;;;;;0.60;0.50;;;15.60;51.20;;;;;;5087313;28;45414;-69
2023/04/12 04:15:59;;;;;;;0.93;0.43;;;15.50;50.80;;;;;;5087482;28;45257;-71
2023/04/12 04:18:27;;;;;;;1.00;0.50;;;15.50;51.10;;;;;;5087614;28;45491;-71
2023/04/12 04:20:54;;;;;;;0.73;0.60;;;15.50;50.90;;;;;;5087076;28;46270;-71
2023/04/12 04:23:21;;;;;;;0.88;0.60;;;15.50;51.10;;;;;;5087111;28;45376;-71
2023/04/12 04:25:47;;;;;;;0.52;0.52;;;15.50;51.00;;;;;;5087014;28;45333;-71
2023/04/12 04:28:15;;;;;;;0.40;0.40;;;15.50;50.90;;;;;;5087206;28;45469;-71
2023/04/12 04:30:44;;;;;;;0.47;0.47;;;15.50;50.90;;;;;;5086937;28;46918;-71
2023/04/12 04:33:11;;;;;;;0.50;0.50;;;15.50;51.00;;;;;;5087010;28;45362;-71
2023/04/12 04:35:41;;;;;;;0.60;0.50;;;15.50;51.00;;;;;;5087069;28;45274;-71
2023/04/12 04:38:08;;;;;;;0.55;0.55;;;15.50;51.00;;;;;;5087192;28;45537;-71
2023/04/12 04:40:36;;;;;;;0.57;0.40;;;15.50;51.10;;;;;;5087098;28;46415;-70
2023/04/12 04:43:03;;;;;;;0.85;0.52;;;15.50;51.00;;;;;;5086966;28;45265;-71
2023/04/12 04:45:31;;;;;;;1.65;0.50;;;15.50;51.00;;;;;;5087142;28;45372;-71
2023/04/12 04:47:58;;;;;;;0.50;0.50;;;15.50;51.00;;;;;;5086915;28;45393;-70
2023/04/12 04:50:25;;;;;;;0.40;0.40;;;15.50;51.00;;;;;;5086833;28;45292;-71
2023/04/12 04:52:53;;;;;;;0.43;0.43;;;15.50;51.10;;;;;;5086576;28;45400;-71
2023/04/12 04:55:20;;;;;;;0.85;0.70;;;15.50;51.10;;;;;;5086756;28;45303;-71
2023/04/12 04:57:47;;;;;;;0.65;0.57;;;15.50;51.00;;;;;;5086877;28;45383;-70
2023/04/12 05:00:15;;;;;;;0.40;0.40;;;15.50;51.10;;;;;;5086565;28;45375;-71
2023/04/12 05:02:42;;;;;;;0.88;0.60;;;15.50;51.00;;;;;;5086497;28;45351;-71
2023/04/12 05:05:11;;;;;;;0.75;0.70;;;15.50;51.10;;;;;;5086757;28;45304;-71
2023/04/12 05:07:38;;;;;;;1.42;0.73;;;15.40;51.00;;;;;;5086714;28;45351;-71
2023/04/12 05:10:08;;;;;;;0.40;0.40;;;15.40;51.00;;;;;;5086408;28;46373;-71
2023/04/12 05:12:34;;;;;;;1.35;0.60;;;15.40;51.10;;;;;;5086699;28;45367;-71
2023/04/12 05:15:01;;;;;;;0.88;0.45;;;15.40;51.10;;;;;;5086395;28;45289;-71
2023/04/12 05:17:28;;;;;;;0.73;0.50;;;15.40;51.10;;;;;;5086622;28;45264;-71
2023/04/12 05:19:55;;;;;;;1.30;0.57;;;15.40;51.00;;;;;;5086285;28;46295;-71
2023/04/12 05:22:22;;;;;;;0.50;0.50;;;15.40;51.00;;;;;;5086249;28;45317;-71
2023/04/12 05:24:49;;;;;;;0.60;0.60;;;15.40;51.00;;;;;;5086714;28;45316;-70
2023/04/12 05:27:17;;;;;;;0.90;0.47;;;15.30;51.00;;;;;;5086262;28;45307;-71
2023/04/12 05:29:44;;;;;;;1.45;0.77;;;15.40;51.00;;;;;;5085929;28;46612;-71
2023/04/12 05:32:11;;;;;;;0.43;0.43;;;15.40;51.00;;;;;;5086166;28;45309;-71
2023/04/12 05:34:38;;;;;;;0.63;0.50;;;15.40;51.00;;;;;;5086349;28;45373;-71
2023/04/12 05:37:05;;;;;;;0.68;0.55;;;15.30;51.00;;;;;;5086267;28;45237;-71
2023/04/12 05:39:33;;;;;;;0.55;0.50;;;15.40;51.10;;;;;;5086100;28;45498;-71
2023/04/12 05:42:00;;;;;;;1.15;0.60;;;15.40;51.10;;;;;;5086135;28;45367;-71
2023/04/12 05:44:28;;;;;;;0.43;0.43;;;15.40;51.10;;;;;;5086357;28;45241;-71
2023/04/12 05:46:55;;;;;;;0.40;0.40;;;15.40;51.00;;;;;;5086215;28;45304;-71
2023/04/12 05:49:22;;;;;;;0.40;0.40;;;15.40;51.10;;;;;;5085945;28;46345;-71
2023/04/12 05:51:48;;;;;;;0.63;0.63;;;15.40;51.10;;;;;;5086147;28;45431;-71
2023/04/12 05:54:19;;;;;;;0.73;0.63;;;15.40;51.10;;;;;;5086031;28;45434;-71
2023/04/12 05:56:46;;;;;;;0.95;0.40;;;15.40;51.20;;;;;;5085850;28;45613;-71
2023/04/12 05:59:13;;;;;;;0.60;0.60;;;15.40;51.10;;;;;;5085536;28;45740;-71
2023/04/12 06:01:43;;;;;;;0.50;0.50;;;15.40;51.00;;;;;;5085745;28;45317;-71
2023/04/12 06:04:10;;;;;;;0.35;0.35;;;15.40;51.10;;;;;;5085800;28;45315;-71
2023/04/12 06:06:37;;;;;;;0.40;0.40;;;15.40;51.10;;;;;;5088398;27;45257;-71
2023/04/12 06:09:04;;;;;;;0.50;0.50;;;15.40;51.10;;;;;;5089160;28;46676;-71
2023/04/12 06:11:32;;;;;;;0.68;0.50;;;15.40;51.10;;;;;;5089420;28;45309;-71
2023/04/12 06:13:59;;;;;;;0.43;0.43;;;15.40;51.10;;;;;;5089445;28;45411;-71
2023/04/12 06:16:26;;;;;;;0.75;0.73;;;15.40;51.10;;;;;;5089242;28;45328;-71
2023/04/12 06:18:54;;;;;;;0.30;0.30;;;15.40;51.10;;;;;;5089263;28;47504;-71
2023/04/12 06:21:21;;;;;;;0.63;0.63;;;15.30;51.00;;;;;;5088975;28;45399;-71
2023/04/12 06:23:48;;;;;;;0.57;0.50;;;15.40;51.00;;;;;;5089387;28;45256;-71
2023/04/12 06:26:15;;;;;;;0.57;0.43;;;15.40;51.00;;;;;;5088719;28;45274;-70
2023/04/12 06:28:42;;;;;;;0.60;0.60;;;15.40;51.00;;;;;;5088812;28;46720;-70
2023/04/12 06:31:09;;;;;;;0.50;0.50;;;15.40;51.10;;;;;;5088606;28;45328;-70
2023/04/12 06:33:36;;;;;;;1.90;0.70;;;15.40;51.10;;;;;;5088896;28;45334;-71
2023/04/12 06:36:05;;;;;;;1.05;0.65;;;15.40;51.80;;;;;;5088906;28;45579;-70
2023/04/12 06:38:32;;;;;;;3.22;0.60;;;15.40;51.10;;;;;;5088431;28;46386;-70
2023/04/12 06:40:59;;;;;;;1.00;0.52;;;15.40;51.20;;;;;;5088583;28;45343;-70
2023/04/12 06:43:26;;;;;;;0.47;0.47;;;15.40;51.10;;;;;;5088480;28;45403;-70
2023/04/12 06:45:53;;;;;;;0.65;0.60;;;15.40;51.30;;;;;;5088773;28;45321;-70
2023/04/12 06:48:20;;;;;;;1.23;0.60;;;15.40;51.10;;;;;;5088244;28;46553;-70
2023/04/12 06:50:46;;;;;;;0.50;0.50;;;15.40;51.10;;;;;;5087994;28;45399;-70
2023/04/12 06:53:15;;;;;;;1.00;0.65;;;15.40;51.10;;;;;;5095281;27;45469;-70
2023/04/12 06:55:42;;;;;;;1.33;0.65;;;15.50;51.70;;;;;;5107420;27;45386;-70
2023/04/12 06:58:09;;;;;;;2.05;0.73;;;15.50;51.10;;;;;;5108638;27;46336;-70
2023/04/12 07:00:36;;;;;;;2.47;0.80;;;15.50;51.00;;;;;;5090651;27;45278;-69
2023/04/12 07:03:03;;;;;;;1.30;0.80;;;15.50;51.10;;;;;;5095856;27;45283;-69
2023/04/12 07:05:30;;;;;;;1.58;0.90;;;15.40;51.00;;;;;;5108649;27;45289;-69
2023/04/12 07:07:57;;;;;;;1.75;0.73;;;15.50;51.00;;;;;;5104067;27;46739;-70
2023/04/12 07:10:25;;;;;;;2.17;0.80;;;15.50;51.00;;;;;;5103592;27;45458;-69
2023/04/12 07:12:52;;;;;;;1.27;0.77;;;15.50;51.00;;;;;;5092167;27;45335;-69
2023/04/12 07:15:19;;;;;;;0.82;0.57;;;15.50;51.20;;;;;;5088326;27;45425;-68
2023/04/12 07:17:46;;;;;;;1.40;0.70;;;15.50;51.20;;;;;;5087551;27;45513;-69
2023/04/12 07:20:13;;;;;;;1.92;0.80;;;15.50;51.00;;;;;;5088003;27;45460;-68
2023/04/12 07:22:40;;;;;;;0.60;0.60;;;15.60;51.00;;;;;;5106069;27;45412;-69
2023/04/12 07:25:08;;;;;;;1.38;1.05;;;15.50;51.00;;;;;;5106799;27;45454;-68
2023/04/12 07:27:37;;;;;;;1.63;0.70;;;15.60;51.00;;;;;;5108279;27;46361;-68
2023/04/12 07:30:04;;;;;;;1.52;0.93;;;15.50;50.80;;;;;;5102140;27;45253;-67
2023/04/12 07:32:31;;;;;;;2.08;1.00;;;15.60;50.90;;;;;;5088063;28;45341;-67
2023/04/12 07:34:58;;;;;;;1.48;0.95;;;15.60;50.90;;;;;;5089292;27;45203;-67
2023/04/12 07:37:25;;;;;;;1.85;0.95;;;15.60;50.90;;;;;;5087545;28;46452;-66
2023/04/12 07:39:52;;;;;;;1.40;0.98;;;15.60;51.10;;;;;;5091728;27;45329;-66
2023/04/12 07:42:18;;;;;;;2.17;1.13;;;15.60;51.10;;;;;;5106573;27;45150;-68
2023/04/12 07:44:47;;;;;;;5.22;1.13;;;15.60;51.10;;;;;;5080117;27;45316;-67
2023/04/12 07:47:13;;;;;;;3.03;1.25;;;15.60;51.20;;;;;;5070498;28;47350;-67
2023/04/12 07:49:40;;;;;;;3.03;1.23;;;15.70;51.30;;;;;;5087635;28;45256;-67
2023/04/12 07:52:07;;;;;;;4.30;1.02;;;15.70;51.60;;;;;;5087673;28;45261;-69
2023/04/12 07:54:34;;;;;;;1.10;0.80;;;15.70;51.20;;;;;;5103671;27;45371;-69
2023/04/12 07:57:02;;;;;;;3.17;0.90;;;15.70;51.30;;;;;;5101735;27;45563;-70
2023/04/12 07:59:29;;;;;;;6.13;0.90;;;15.70;51.20;;;;;;5107704;27;45332;-70
2023/04/12 08:01:57;;;;;;;2.83;0.95;;;15.70;51.50;;;;;;5094602;27;45383;-69
2023/04/12 08:04:24;;;;;;;2.58;1.25;;;15.70;51.40;;;;;;5087824;28;45384;-69
2023/04/12 08:06:52;;;;;;;2.20;0.93;;;15.70;51.60;;;;;;5097290;27;45472;-69
2023/04/12 08:09:18;;;;;;;2.28;1.08;;;15.70;51.60;;;;;;5097021;27;45478;-69
2023/04/12 08:11:46;;;;;;;1.40;1.27;;;15.70;51.40;;;;;;5107869;27;45377;-70
2023/04/12 08:14:13;;;;;;;0.88;0.68;;;15.70;51.20;;;;;;5106408;27;45485;-69
2023/04/12 08:16:39;;;;;;;1.98;1.13;;;15.70;51.20;;;;;;5092018;27;45605;-69
2023/04/12 08:19:08;;;;;;;3.30;0.82;;;15.70;51.20;;;;;;5084405;27;45116;-69
2023/04/12 08:21:34;;;;;;;4.50;1.08;;;15.70;51.30;;;;;;5099853;27;45375;-69
2023/04/12 08:24:01;;;;;;;1.00;0.88;;;15.70;51.10;;;;;;5091624;27;45404;-69
2023/04/12 08:26:28;;;;;;;2.22;0.77;;;15.70;51.10;;;;;;5098734;27;45437;-69
2023/04/12 08:28:56;;;;;;;0.80;0.80;;;15.70;51.20;;;;;;5106911;27;45308;-69
2023/04/12 08:31:24;;;;;;;1.40;0.82;;;15.70;51.10;;;;;;5094052;27;45442;-69
2023/04/12 08:33:51;;;;;;;1.70;1.00;;;15.70;51.00;;;;;;5086635;27;45538;-69
2023/04/12 08:36:19;;;;;;;4.00;1.27;;;15.70;51.10;;;;;;5096064;27;45521;-69
2023/04/12 08:38:51;;;;;;;1.95;1.17;;;15.70;50.90;;;;;;5107232;27;45270;-70
2023/04/12 08:41:18;;;;;;;0.93;0.70;;;15.70;51.10;;;;;;5105625;27;45363;-69
2023/04/12 08:43:46;;;;;;;1.58;1.05;;;15.70;51.00;;;;;;5090246;27;45227;-69
2023/04/12 08:46:14;;;;;;;1.90;1.10;;;15.70;50.90;;;;;;5087551;27;45645;-69
2023/04/12 08:48:42;;;;;;;2.75;0.80;;;15.70;50.90;;;;;;5070761;28;45388;-69
2023/04/12 08:51:09;;;;;;;2.60;1.08;;;15.60;50.80;;;;;;5080385;27;45453;-69
2023/04/12 08:53:37;;;;;;;2.28;1.17;;;15.70;51.10;;;;;;5101532;27;45471;-70
2023/04/12 08:56:06;;;;;;;3.03;0.90;;;15.70;51.00;;;;;;5105227;27;45300;-70
2023/04/12 08:58:33;;;;;;;2.88;0.77;;;15.60;51.10;;;;;;5106689;27;45381;-70
2023/04/12 09:00:59;;;;;;;1.25;0.80;;;15.60;51.00;;;;;;5105393;27;45395;-70
2023/04/12 09:03:28;;;;;;;1.20;1.00;;;15.60;51.10;;;;;;5094425;27;45249;-70
2023/04/12 09:05:55;;;;;;;2.75;1.00;;;15.60;51.10;;;;;;5095803;27;45708;-70
2023/04/12 09:08:25;;;;;;;2.45;0.90;;;15.60;51.10;;;;;;5092907;27;45522;-70
2023/04/12 09:10:54;;;;;;;0.93;0.63;;;15.70;51.10;;;;;;5087399;27;45332;-70
2023/04/12 09:13:32;;;;;;;2.63;1.00;;;15.60;51.10;;;;;;5096855;27;45501;-70
2023/04/12 09:15:58;;;;;;;2.80;0.88;;;15.60;51.70;;;;;;5090426;27;45513;-70
2023/04/12 09:18:26;;;;;;;1.08;0.73;;;15.60;51.10;;;;;;5106763;27;45321;-70
2023/04/12 09:21:06;;;;;;;1.20;0.88;;;15.60;51.10;;;;;;5091776;27;45454;-70
2023/04/12 09:23:34;;;;;;;1.77;1.00;;;15.60;51.20;;;;;;5085968;28;45435;-70
2023/04/12 09:26:03;;;;;;;1.30;0.63;;;15.60;51.20;;;;;;5086882;27;46515;-70
2023/04/12 09:28:30;;;;;;;2.55;0.90;;;15.60;51.20;;;;;;5099269;27;45387;-70
2023/04/12 09:30:57;;;;;;;2.70;0.90;;;15.60;51.30;;;;;;5086001;27;45376;-70
2023/04/12 09:33:33;;;;;;;0.73;0.73;;;15.60;51.30;;;;;;5088454;27;45329;-70
2023/04/12 09:36:00;;;;;;;0.93;0.90;;;15.60;51.30;;;;;;5086886;27;45534;-70
2023/04/12 09:38:27;;;;;;;2.08;0.90;;;15.60;51.50;;;;;;5086777;27;45454;-70
2023/04/12 09:40:54;;;;;;;1.35;0.80;;;15.60;51.40;;;;;;5086119;27;45299;-70
2023/04/12 09:46:18;;;;;;;3.08;0.93;;;15.60;51.30;;;;;;5143605;27;45317;-70
2023/04/12 09:48:49;;;;;;;1.30;0.90;;;15.60;51.50;;;;;;5138152;27;45286;-70
2023/04/12 09:51:24;;;;;;;1.58;1.00;;;15.60;51.40;;;;;;5137460;27;45421;-70
2023/04/12 09:53:51;;;;;;;2.13;1.02;;;15.60;51.50;;;;;;5124017;27;45385;-70
2023/04/12 09:56:17;;;;;;;2.38;0.77;;;15.60;51.60;;;;;;5135742;27;47253;-70
2023/04/12 09:58:44;;;;;;;0.95;0.70;;;15.50;51.50;;;;;;5140474;27;45487;-70
2023/04/12 10:01:11;;;;;;;2.17;0.90;;;15.60;51.50;;;;;;5127542;27;45173;-70
2023/04/12 10:03:39;;;;;;;1.02;0.55;;;15.60;51.60;;;;;;5123502;27;45427;-70
2023/04/12 10:06:07;;;;;;;3.72;0.82;;;15.60;51.50;;;;;;5123018;27;46512;-71
2023/04/12 10:08:35;;;;;;;1.80;0.90;;;15.60;51.40;;;;;;5123091;27;45141;-70
2023/04/12 10:11:02;;;;;;;3.83;1.00;;;15.60;51.40;;;;;;5123292;27;45520;-71
2023/04/12 10:13:28;;;;;;;1.15;0.90;;;15.60;51.40;;;;;;5123334;27;45365;-71
2023/04/12 10:15:55;;;;;;;0.43;0.40;;;15.60;51.30;;;;;;5122889;27;46469;-70
2023/04/12 10:18:22;;;;;;;0.73;0.73;;;15.60;51.30;;;;;;5123027;27;45268;-70
2023/04/12 10:20:50;;;;;;;1.30;0.65;;;15.60;51.90;;;;;;5123240;27;45248;-70
2023/04/12 10:23:17;;;;;;;1.10;0.70;;;15.60;51.20;;;;;;5123263;27;45363;-70
2023/04/12 10:25:45;;;;;;;3.88;1.60;;;15.60;51.30;;;;;;5122703;27;45490;-70
2023/04/12 10:28:16;;;;;;;2.60;0.98;;;15.70;51.40;;;;;;5122900;27;45275;-70
2023/04/12 10:30:42;;;;;;;0.80;0.80;;;15.70;51.20;;;;;;5112784;27;45430;-70
2023/04/12 10:33:18;;;;;;;1.13;1.00;;;15.70;51.20;;;;;;5102582;27;45407;-70
2023/04/12 10:35:55;;;;;;;1.27;0.75;;;15.60;51.30;;;;;;5101985;27;46787;-70
2023/04/12 10:38:23;;;;;;;1.90;0.60;;;15.70;51.40;;;;;;5102096;27;45252;-70
2023/04/12 10:41:16;;;;;;;1.38;0.77;;;15.70;51.30;;;;;;5102318;27;45298;-70
2023/04/12 10:43:43;;;;;;;0.55;0.55;;;15.60;51.20;;;;;;5102308;27;45466;-70
2023/04/12 10:46:43;;;;;;;1.30;0.88;;;15.60;51.20;;;;;;5101649;27;46288;-70
2023/04/12 10:49:10;;;;;;;0.70;0.70;;;15.60;51.30;;;;;;5122107;27;45397;-70
2023/04/12 10:51:38;;;;;;;1.90;0.80;;;15.60;51.30;;;;;;5122819;27;45309;-70
2023/04/12 10:54:34;;;;;;;1.95;0.80;;;15.60;51.20;;;;;;5122922;27;45263;-70
2023/04/12 10:57:00;;;;;;;2.20;0.77;;;15.70;51.20;;;;;;5111854;27;46664;-70
2023/04/12 10:59:30;;;;;;;1.30;1.00;;;15.70;51.80;;;;;;5108759;27;45377;-70
2023/04/12 11:02:10;;;;;;;0.70;0.60;;;15.70;51.50;;;;;;5108917;27;45299;-70
2023/04/12 11:04:37;;;;;;;2.22;0.70;;;15.70;51.20;;;;;;5108907;27;45171;-70
2023/04/12 11:07:08;;;;;;;2.10;0.90;;;15.70;51.40;;;;;;5108170;27;45281;-70
2023/04/12 11:09:38;;;;;;;2.20;0.90;;;15.80;51.20;;;;;;5112355;27;45359;-69
2023/04/12 11:12:12;;;;;;;0.88;0.88;;;15.80;51.10;;;;;;5112064;27;45490;-70
2023/04/12 11:14:43;;;;;;;1.30;0.85;;;15.80;50.90;;;;;;5107489;27;45584;-70
2023/04/12 11:17:22;;;;;;;1.05;0.95;;;15.80;50.90;;;;;;5108100;27;46743;-69
2023/04/12 11:19:51;;;;;;;2.22;0.98;;;15.80;50.80;;;;;;5108342;27;45420;-69
2023/04/12 11:22:21;;;;;;;0.68;0.68;;;15.90;50.90;;;;;;5108249;27;45261;-69
2023/04/12 11:24:48;;;;;;;2.65;0.88;;;15.90;50.80;;;;;;5108212;27;45350;-69
2023/04/12 11:27:16;;;;;;;2.78;0.90;;;15.90;50.80;;;;;;5107848;27;46358;-69
2023/04/12 11:29:43;;;;;;;0.95;0.90;;;15.90;50.80;;;;;;5107829;27;45465;-69
2023/04/12 11:32:10;;;;;;;1.38;0.70;;;15.90;50.70;;;;;;5108441;27;45322;-69
2023/04/12 11:34:37;;;;;;;1.08;0.80;;;15.90;50.80;;;;;;5128580;27;45687;-69
2023/04/12 11:37:07;;;;;;;2.60;1.00;;;15.90;50.80;;;;;;5128696;27;45483;-69
2023/04/12 11:39:38;;;;;;;2.83;0.90;;;16.00;50.90;;;;;;5105170;27;45500;-69
2023/04/12 11:42:07;;;;;;;1.08;1.00;;;16.00;50.90;;;;;;5109610;27;45450;-69
2023/04/12 11:44:34;;;;;;;0.93;0.80;;;16.00;50.80;;;;;;5107889;27;45442;-69
2023/04/12 11:47:01;;;;;;;1.80;1.00;;;16.00;50.80;;;;;;5121212;27;45747;-69
2023/04/12 11:49:28;;;;;;;0.75;0.70;;;16.00;50.80;;;;;;5107657;27;45256;-69
2023/04/12 11:52:01;;;;;;;1.13;0.70;;;16.00;50.80;;;;;;5112408;27;45343;-69
2023/04/12 11:54:29;;;;;;;1.73;0.73;;;16.10;50.80;;;;;;5107453;27;45415;-69
2023/04/12 11:56:57;;;;;;;2.58;0.85;;;16.10;50.80;;;;;;5127749;27;45243;-69
2023/04/12 11:59:31;;;;;;;1.30;0.90;;;16.10;50.80;;;;;;5126542;27;45237;-69
2023/04/12 12:01:58;;;;;;;0.77;0.77;;;16.20;50.70;;;;;;5087596;27;45351;-69
2023/04/12 12:04:25;;;;;;;1.20;0.90;;;16.20;50.60;;;;;;5093099;27;45253;-69
2023/04/12 12:06:52;;;;;;;1.23;0.65;;;16.20;50.70;;;;;;5107054;27;46350;-69
2023/04/12 12:09:19;;;;;;;2.65;0.80;;;16.30;50.80;;;;;;5108741;27;45311;-69
2023/04/12 12:11:45;;;;;;;0.77;0.70;;;16.30;51.00;;;;;;5128075;27;46519;-69
2023/04/12 12:14:16;;;;;;;2.28;1.00;;;16.20;51.00;;;;;;5127144;27;45688;-68
2023/04/12 12:16:43;;;;;;;6.07;0.80;;;16.20;51.10;;;;;;5126855;27;45311;-68
2023/04/12 12:19:09;;;;;;;1.02;0.73;;;16.20;51.20;;;;;;5126889;27;45384;-68
2023/04/12 12:21:36;;;;;;;2.60;0.80;;;16.20;51.20;;;;;;5107646;27;45472;-68
2023/04/12 12:24:03;;;;;;;0.82;0.82;;;16.20;51.30;;;;;;5107701;27;45354;-69
2023/04/12 12:26:30;;;;;;;1.67;0.82;;;16.20;51.30;;;;;;5108139;27;46403;-68
2023/04/12 12:28:59;;;;;;;1.77;0.95;;;16.20;51.30;;;;;;5107375;27;45339;-68
2023/04/12 12:31:27;;;;;;;2.05;0.82;;;16.20;51.40;;;;;;5111174;27;45323;-68
2023/04/12 12:33:55;;;;;;;0.95;0.82;;;16.20;51.40;;;;;;5107235;27;45435;-68
2023/04/12 12:36:30;;;;;;;0.70;0.70;;;16.30;51.30;;;;;;5108179;27;45724;-68
2023/04/12 12:39:04;;;;;;;2.38;0.90;;;16.30;51.30;;;;;;5104509;27;45367;-68
2023/04/12 12:41:31;;;;;;;4.13;0.80;;;16.30;51.20;;;;;;5113690;27;45204;-67
2023/04/12 12:43:58;;;;;;;1.42;0.70;;;16.30;51.00;;;;;;5106779;27;45409;-67
2023/04/12 12:46:24;;;;;;;1.25;0.60;;;16.30;51.20;;;;;;5110885;27;45237;-67
2023/04/12 12:48:52;;;;;;;1.00;0.80;;;16.30;51.10;;;;;;5106329;27;45407;-67
2023/04/12 12:51:19;;;;;;;1.23;0.80;;;16.30;51.10;;;;;;5102887;27;45236;-68
2023/04/12 12:53:46;;;;;;;1.05;0.80;;;16.30;51.20;;;;;;5119668;27;45627;-67
2023/04/12 12:56:14;;;;;;;1.13;0.73;;;16.30;51.20;;;;;;5110498;27;47303;-67